Rejestracja

Wszystkie dane podawane są w czasie UTC za wyjątkiem miejsc gdzie jest jednoznacznie podane, że jest inaczej. Dane podawane w serwisie mają charakter informacyjny!!!
Informacje w sprawie dostępu do serwisu pod numerem tel. +48 261-828-138
Informacja dla żołnierzy i pracowników wojska: Prosimy o niezwłoczną zmianę adresu e-mail w profilu użytkowika na pocztę w domenie @ron.mil.pl

Aktualna Pogoda
 
Pogoda w Polsce
8°C Szczecin 12°C Suwałki 12°C Warszawa 11°C Poznan
12°C Opole 13°C Kraków 14°C Rzeszów
Więcej miast w Polsce

Pogoda w Europie
13°C Berlin 18°C Paryz 14°C Bruksela 4°C Oslo
12°C Praga 12°C Zagrzeb
Więcej miast w Europie

Metary wojskowe test
METAR EPBC 181800Z 18001KT 7000 BCFG BR NSC 12/10 Q1015=
METAR EPCE 181930Z 00000KT 9999 OVC022 09/09 Q1016 RMK 090 098 8/8=
METAR EPDA 181930Z VRB01KT 0500 FG VV006 07/07 Q1016 RMK 072 100 ///=
SPECI EPDE 181950Z VRB02KT 0500 FG SCT200 09/08 Q1015 RMK 091 094 3/3=
METAR EPIR 181900Z 35004KT CAVOK 10/09 Q1015 RMK 104 093 3/3=
METAR EPKS 181930Z 02002KT CAVOK 11/08 Q1015 RMK 110 084 6/6=
SPECI EPLK 181956Z 11002KT 3000 BR BKN200 12/12 Q1015 RMK 122 097 7/7=
SPECI EPLY 181955Z VRB02KT 2000 MIFG BR SCT200 11/09 Q1014 RMK 105 094 4/4=
METAR EPMB 181930Z 03004KT 9999 BKN025 BKN100 12/10 Q1016 RMK 121 088 7/5=
METAR EPMI 181930Z 00000KT 6000 SCT050 BKN110 09/08 Q1016 RMK 088 094 5/3=
METAR EPMM 181930Z VRB02KT 2000 BR FEW200 12/12 Q1015 RMK 119 099 2/2=
METAR EPNA 181630Z 00000KT 6000 FEW040 SCT100 10/10 Q1015 RMK 101 098 4/2=
METAR EPOK 181930Z 26005KT 9999 OVC026 12/10 Q1016 RMK 119 088 8/8=
METAR EPPR 181930Z 02002KT 9999 BKN034 12/10 Q1016 RMK 116 087 7/7=
METAR EPPW 181930Z 06002KT CAVOK 12/09 Q1015 RMK 119 081 5/5=
METAR EPSN 181930Z 05004KT 8000 NSC 10/09 Q1016 RMK 100 095 5/5=
METAR EPTM 181900Z 00000KT 0300 FG BKN200 12/11 Q1015 RMK 116 098 7/7=


 

Prawa autorskie©2007 SSH SZ RP. Wszelkie prawa zastrzeżone.